sensor_id;sensor_type;location;lat;lon;timestamp;pressure;altitude;pressure_sealevel;temperature;humidity
10167;BME280;62970;53.130;8.244;2022-09-09T00:00:40;100790.69;;;12.95;73.32
10167;BME280;62970;53.130;8.244;2022-09-09T00:03:16;100794.25;;;12.93;73.27
10167;BME280;62970;53.130;8.244;2022-09-09T00:05:55;100803.06;;;12.90;73.32
10167;BME280;62970;53.130;8.244;2022-09-09T00:08:38;100799.69;;;12.87;73.47
10167;BME280;62970;53.130;8.244;2022-09-09T00:11:20;100798.94;;;12.83;73.52
10167;BME280;62970;53.130;8.244;2022-09-09T00:13:54;100797.28;;;12.81;73.12
10167;BME280;62970;53.130;8.244;2022-09-09T00:16:28;100794.72;;;12.79;73.45
10167;BME280;62970;53.130;8.244;2022-09-09T00:19:05;100790.47;;;12.75;73.67
10167;BME280;62970;53.130;8.244;2022-09-09T00:21:37;100795.81;;;12.72;73.53
10167;BME280;62970;53.130;8.244;2022-09-09T00:24:23;100792.38;;;12.70;73.51
10167;BME280;62970;53.130;8.244;2022-09-09T00:27:04;100799.47;;;12.66;73.63
10167;BME280;62970;53.130;8.244;2022-09-09T00:29:41;100799.53;;;12.65;73.65
10167;BME280;62970;53.130;8.244;2022-09-09T00:32:16;100799.63;;;12.62;73.76
10167;BME280;62970;53.130;8.244;2022-09-09T00:34:51;100801.38;;;12.61;73.54
10167;BME280;62970;53.130;8.244;2022-09-09T00:37:23;100798.84;;;12.58;73.98
10167;BME280;62970;53.130;8.244;2022-09-09T00:39:57;100800.59;;;12.58;74.04
10167;BME280;62970;53.130;8.244;2022-09-09T00:42:40;100797.13;;;12.57;74.13
10167;BME280;62970;53.130;8.244;2022-09-09T00:45:30;100803.16;;;12.61;74.09
10167;BME280;62970;53.130;8.244;2022-09-09T00:48:08;100798.63;;;12.66;74.44
10167;BME280;62970;53.130;8.244;2022-09-09T00:50:47;100798.47;;;12.70;74.44
10167;BME280;62970;53.130;8.244;2022-09-09T00:53:32;100793.09;;;12.75;74.47
10167;BME280;62970;53.130;8.244;2022-09-09T00:56:13;100789.47;;;12.79;74.48
10167;BME280;62970;53.130;8.244;2022-09-09T00:58:55;100785.09;;;12.80;73.96
10167;BME280;62970;53.130;8.244;2022-09-09T01:01:26;100785.06;;;12.81;74.48
10167;BME280;62970;53.130;8.244;2022-09-09T01:03:56;100781.63;;;12.79;73.88
10167;BME280;62970;53.130;8.244;2022-09-09T01:06:31;100791.19;;;12.80;74.34
10167;BME280;62970;53.130;8.244;2022-09-09T01:09:19;100789.53;;;12.78;74.31
10167;BME280;62970;53.130;8.244;2022-09-09T01:11:59;100793.84;;;12.79;74.19
10167;BME280;62970;53.130;8.244;2022-09-09T01:14:41;100790.38;;;12.78;74.12
10167;BME280;62970;53.130;8.244;2022-09-09T01:17:17;100785.16;;;12.78;73.87
10167;BME280;62970;53.130;8.244;2022-09-09T01:20:02;100791.28;;;12.77;73.80
10167;BME280;62970;53.130;8.244;2022-09-09T01:22:36;100785.28;;;12.73;74.02
10167;BME280;62970;53.130;8.244;2022-09-09T01:25:29;100785.44;;;12.69;73.80
10167;BME280;62970;53.130;8.244;2022-09-09T01:28:08;100783.84;;;12.65;73.63
10167;BME280;62970;53.130;8.244;2022-09-09T01:30:41;100777.84;;;12.61;73.66
10167;BME280;62970;53.130;8.244;2022-09-09T01:33:15;100780.53;;;12.58;73.74
10167;BME280;62970;53.130;8.244;2022-09-09T01:35:49;100771.03;;;12.54;73.96
10167;BME280;62970;53.130;8.244;2022-09-09T01:38:21;100775.44;;;12.52;73.82
10167;BME280;62970;53.130;8.244;2022-09-09T01:40:51;100773.75;;;12.51;74.08
10167;BME280;62970;53.130;8.244;2022-09-09T01:43:24;100777.25;;;12.50;73.97
10167;BME280;62970;53.130;8.244;2022-09-09T01:45:58;100772.06;;;12.49;74.19
10167;BME280;62970;53.130;8.244;2022-09-09T01:48:28;100771.22;;;12.48;74.36
10167;BME280;62970;53.130;8.244;2022-09-09T01:50:57;100774.75;;;12.47;73.80
10167;BME280;62970;53.130;8.244;2022-09-09T01:53:28;100773.94;;;12.45;74.12
10167;BME280;62970;53.130;8.244;2022-09-09T01:56:08;100775.78;;;12.41;73.79
10167;BME280;62970;53.130;8.244;2022-09-09T01:58:57;100761.91;;;12.39;73.88
10167;BME280;62970;53.130;8.244;2022-09-09T02:01:43;100764.53;;;12.39;74.21
10167;BME280;62970;53.130;8.244;2022-09-09T02:04:28;100766.31;;;12.37;74.67
10167;BME280;62970;53.130;8.244;2022-09-09T02:07:02;100765.47;;;12.37;74.28
10167;BME280;62970;53.130;8.244;2022-09-09T02:09:35;100761.09;;;12.37;74.29
10167;BME280;62970;53.130;8.244;2022-09-09T02:12:10;100753.34;;;12.34;74.34
10167;BME280;62970;53.130;8.244;2022-09-09T02:14:49;100759.47;;;12.33;74.49
10167;BME280;62970;53.130;8.244;2022-09-09T02:17:26;100756.00;;;12.33;73.94
10167;BME280;62970;53.130;8.244;2022-09-09T02:20:04;100752.59;;;12.31;73.97
10167;BME280;62970;53.130;8.244;2022-09-09T02:22:37;100761.34;;;12.30;73.92
10167;BME280;62970;53.130;8.244;2022-09-09T02:25:11;100764.03;;;12.27;74.31
10167;BME280;62970;53.130;8.244;2022-09-09T02:27:44;100762.38;;;12.24;73.89
10167;BME280;62970;53.130;8.244;2022-09-09T02:30:18;100753.78;;;12.21;74.21
10167;BME280;62970;53.130;8.244;2022-09-09T02:32:50;100759.09;;;12.18;73.90
10167;BME280;62970;53.130;8.244;2022-09-09T02:35:24;100764.38;;;12.16;73.79
10167;BME280;62970;53.130;8.244;2022-09-09T02:37:58;100756.56;;;12.15;74.49
10167;BME280;62970;53.130;8.244;2022-09-09T02:40:29;100753.09;;;12.14;74.36
10167;BME280;62970;53.130;8.244;2022-09-09T02:42:58;100748.72;;;12.15;74.45
10167;BME280;62970;53.130;8.244;2022-09-09T02:45:39;100750.50;;;12.14;74.72
10167;BME280;62970;53.130;8.244;2022-09-09T02:48:17;100756.56;;;12.15;74.41
10167;BME280;62970;53.130;8.244;2022-09-09T02:50:57;100760.00;;;12.17;74.38
10167;BME280;62970;53.130;8.244;2022-09-09T02:53:42;100766.88;;;12.19;74.56
10167;BME280;62970;53.130;8.244;2022-09-09T02:56:16;100758.97;;;12.22;74.74
10167;BME280;62970;53.130;8.244;2022-09-09T02:58:47;100756.19;;;12.27;74.97
10167;BME280;62970;53.130;8.244;2022-09-09T03:01:21;100760.47;;;12.29;74.99
10167;BME280;62970;53.130;8.244;2022-09-09T03:03:50;100757.78;;;12.32;74.67
10167;BME280;62970;53.130;8.244;2022-09-09T03:06:20;100756.88;;;12.33;74.92
10167;BME280;62970;53.130;8.244;2022-09-09T03:08:50;100757.69;;;12.35;74.79
10167;BME280;62970;53.130;8.244;2022-09-09T03:11:19;100755.88;;;12.37;74.48
10167;BME280;62970;53.130;8.244;2022-09-09T03:13:48;100761.00;;;12.40;74.72
10167;BME280;62970;53.130;8.244;2022-09-09T03:16:22;100761.72;;;12.45;74.96
10167;BME280;62970;53.130;8.244;2022-09-09T03:18:51;100763.31;;;12.50;74.84
10167;BME280;62970;53.130;8.244;2022-09-09T03:21:20;100765.84;;;12.53;74.92
10167;BME280;62970;53.130;8.244;2022-09-09T03:23:49;100763.13;;;12.57;74.54
10167;BME280;62970;53.130;8.244;2022-09-09T03:26:18;100769.13;;;12.61;74.49
10167;BME280;62970;53.130;8.244;2022-09-09T03:28:47;100765.53;;;12.65;74.69
10167;BME280;62970;53.130;8.244;2022-09-09T03:31:17;100760.19;;;12.68;74.86
10167;BME280;62970;53.130;8.244;2022-09-09T03:33:49;100765.31;;;12.71;74.76
10167;BME280;62970;53.130;8.244;2022-09-09T03:36:19;100766.97;;;12.73;74.91
10167;BME280;62970;53.130;8.244;2022-09-09T03:38:48;100766.06;;;12.74;74.25
10167;BME280;62970;53.130;8.244;2022-09-09T03:41:16;100764.38;;;12.73;74.12
10167;BME280;62970;53.130;8.244;2022-09-09T03:43:49;100765.28;;;12.72;73.90
10167;BME280;62970;53.130;8.244;2022-09-09T03:46:19;100773.22;;;12.69;73.80
10167;BME280;62970;53.130;8.244;2022-09-09T03:48:52;100765.53;;;12.65;73.75
10167;BME280;62970;53.130;8.244;2022-09-09T03:51:22;100767.34;;;12.63;73.77
10167;BME280;62970;53.130;8.244;2022-09-09T03:53:51;100774.38;;;12.59;73.85
10167;BME280;62970;53.130;8.244;2022-09-09T03:56:24;100779.66;;;12.58;74.20
10167;BME280;62970;53.130;8.244;2022-09-09T03:58:53;100776.25;;;12.54;74.21
10167;BME280;62970;53.130;8.244;2022-09-09T04:01:23;100778.06;;;12.52;74.25
10167;BME280;62970;53.130;8.244;2022-09-09T04:03:54;100784.25;;;12.50;74.37
10167;BME280;62970;53.130;8.244;2022-09-09T04:06:25;100784.25;;;12.50;74.22
10167;BME280;62970;53.130;8.244;2022-09-09T04:08:55;100784.25;;;12.50;74.36
10167;BME280;62970;53.130;8.244;2022-09-09T04:11:24;100785.97;;;12.51;74.18
10167;BME280;62970;53.130;8.244;2022-09-09T04:13:56;100789.44;;;12.51;74.22
10167;BME280;62970;53.130;8.244;2022-09-09T04:16:26;100785.97;;;12.51;74.22
10167;BME280;62970;53.130;8.244;2022-09-09T04:18:57;100792.03;;;12.51;74.53
10167;BME280;62970;53.130;8.244;2022-09-09T04:21:27;100792.91;;;12.52;74.04
10167;BME280;62970;53.130;8.244;2022-09-09T04:23:56;100787.72;;;12.50;74.41
10167;BME280;62970;53.130;8.244;2022-09-09T04:26:25;100791.28;;;12.48;73.93
10167;BME280;62970;53.130;8.244;2022-09-09T04:28:54;100794.84;;;12.45;73.76
10167;BME280;62970;53.130;8.244;2022-09-09T04:31:24;100792.38;;;12.40;74.23
10167;BME280;62970;53.130;8.244;2022-09-09T04:33:54;100795.13;;;12.36;73.76
10167;BME280;62970;53.130;8.244;2022-09-09T04:36:25;100794.41;;;12.31;73.87
10167;BME280;62970;53.130;8.244;2022-09-09T04:38:55;100797.16;;;12.26;73.79
10167;BME280;62970;53.130;8.244;2022-09-09T04:41:24;100797.25;;;12.23;74.08
10167;BME280;62970;53.130;8.244;2022-09-09T04:43:53;100800.06;;;12.17;73.63
10167;BME280;62970;53.130;8.244;2022-09-09T04:46:23;100800.19;;;12.12;73.97
10167;BME280;62970;53.130;8.244;2022-09-09T04:48:52;100797.72;;;12.08;73.73
10167;BME280;62970;53.130;8.244;2022-09-09T04:51:24;100803.94;;;12.04;74.22
10167;BME280;62970;53.130;8.244;2022-09-09T04:53:54;100793.63;;;11.99;73.94
10167;BME280;62970;53.130;8.244;2022-09-09T04:56:23;100801.53;;;11.96;73.75
10167;BME280;62970;53.130;8.244;2022-09-09T04:58:52;100795.56;;;11.93;73.86
10167;BME280;62970;53.130;8.244;2022-09-09T05:01:22;100799.06;;;11.92;74.49
10167;BME280;62970;53.130;8.244;2022-09-09T05:03:53;100804.38;;;11.89;74.24
10167;BME280;62970;53.130;8.244;2022-09-09T05:06:25;100806.13;;;11.88;74.29
10167;BME280;62970;53.130;8.244;2022-09-09T05:08:56;100802.66;;;11.88;74.56
10167;BME280;62970;53.130;8.244;2022-09-09T05:11:28;100817.44;;;11.89;74.37
10167;BME280;62970;53.130;8.244;2022-09-09T05:13:58;100819.19;;;11.88;74.41
10167;BME280;62970;53.130;8.244;2022-09-09T05:16:27;100815.69;;;11.89;74.46
10167;BME280;62970;53.130;8.244;2022-09-09T05:18:57;100821.72;;;11.91;74.81
10167;BME280;62970;53.130;8.244;2022-09-09T05:21:31;100827.72;;;11.95;74.81
10167;BME280;62970;53.130;8.244;2022-09-09T05:24:01;100825.84;;;12.00;75.22
10167;BME280;62970;53.130;8.244;2022-09-09T05:26:30;100825.69;;;12.04;75.33
10167;BME280;62970;53.130;8.244;2022-09-09T05:28:59;100831.59;;;12.11;75.30
10167;BME280;62970;53.130;8.244;2022-09-09T05:31:30;100833.19;;;12.17;75.33
10167;BME280;62970;53.130;8.244;2022-09-09T05:33:59;100826.88;;;12.24;75.34
10167;BME280;62970;53.130;8.244;2022-09-09T05:36:31;100826.69;;;12.30;74.94
10167;BME280;62970;53.130;8.244;2022-09-09T05:39:00;100827.38;;;12.36;75.00
10167;BME280;62970;53.130;8.244;2022-09-09T05:41:30;100830.69;;;12.41;74.83
10167;BME280;62970;53.130;8.244;2022-09-09T05:43:59;100840.97;;;12.48;74.90
10167;BME280;62970;53.130;8.244;2022-09-09T05:46:29;100832.03;;;12.55;74.82
10167;BME280;62970;53.130;8.244;2022-09-09T05:48:58;100835.19;;;12.67;75.32
10167;BME280;62970;53.130;8.244;2022-09-09T05:51:31;100834.72;;;12.83;75.34
10167;BME280;62970;53.130;8.244;2022-09-09T05:54:01;100835.38;;;13.16;75.58
10167;BME280;62970;53.130;8.244;2022-09-09T05:56:30;100840.13;;;13.81;75.91
10167;BME280;62970;53.130;8.244;2022-09-09T05:58:59;100841.47;;;14.61;76.04
10167;BME280;62970;53.130;8.244;2022-09-09T06:01:32;100832.97;;;15.42;74.98
10167;BME280;62970;53.130;8.244;2022-09-09T06:04:02;100827.75;;;16.20;73.41
10167;BME280;62970;53.130;8.244;2022-09-09T06:06:37;100839.78;;;16.99;72.83
10167;BME280;62970;53.130;8.244;2022-09-09T06:09:09;100832.59;;;17.72;71.18
10167;BME280;62970;53.130;8.244;2022-09-09T06:11:40;100828.88;;;18.42;69.64
10167;BME280;62970;53.130;8.244;2022-09-09T06:14:12;100829.88;;;18.87;68.03
10167;BME280;62970;53.130;8.244;2022-09-09T06:16:42;100831.97;;;18.96;66.90
10167;BME280;62970;53.130;8.244;2022-09-09T06:19:12;100835.38;;;18.98;66.31
10167;BME280;62970;53.130;8.244;2022-09-09T06:21:45;100829.94;;;19.01;66.56
10167;BME280;62970;53.130;8.244;2022-09-09T06:24:16;100830.63;;;19.04;66.40
10167;BME280;62970;53.130;8.244;2022-09-09T06:26:45;100833.41;;;19.01;66.43
10167;BME280;62970;53.130;8.244;2022-09-09T06:29:15;100826.19;;;19.05;66.40
10167;BME280;62970;53.130;8.244;2022-09-09T06:31:44;100828.63;;;19.24;66.49
10167;BME280;62970;53.130;8.244;2022-09-09T06:34:14;100825.16;;;19.37;65.83
10167;BME280;62970;53.130;8.244;2022-09-09T06:36:47;100827.06;;;19.50;66.33
10167;BME280;62970;53.130;8.244;2022-09-09T06:39:17;100817.81;;;19.57;65.67
10167;BME280;62970;53.130;8.244;2022-09-09T06:41:46;100822.34;;;19.55;65.04
10167;BME280;62970;53.130;8.244;2022-09-09T06:44:19;100824.69;;;19.45;65.07
10167;BME280;62970;53.130;8.244;2022-09-09T06:46:48;100827.41;;;19.29;64.89
10167;BME280;62970;53.130;8.244;2022-09-09T06:49:18;100820.31;;;19.30;65.43
10167;BME280;62970;53.130;8.244;2022-09-09T06:51:50;100815.63;;;19.35;65.61
10167;BME280;62970;53.130;8.244;2022-09-09T06:54:20;100810.81;;;19.41;65.67
10167;BME280;62970;53.130;8.244;2022-09-09T06:56:49;100817.72;;;19.44;65.28
10167;BME280;62970;53.130;8.244;2022-09-09T06:59:18;100813.94;;;19.48;66.00
10167;BME280;62970;53.130;8.244;2022-09-09T07:01:48;100816.50;;;19.50;65.23
10167;BME280;62970;53.130;8.244;2022-09-09T07:04:17;100820.84;;;19.51;65.21
10167;BME280;62970;53.130;8.244;2022-09-09T07:06:52;100822.34;;;19.55;65.63
10167;BME280;62970;53.130;8.244;2022-09-09T07:09:21;100826.78;;;19.54;64.80
10167;BME280;62970;53.130;8.244;2022-09-09T07:11:51;100829.91;;;19.46;64.57
10167;BME280;62970;53.130;8.244;2022-09-09T07:14:21;100821.00;;;19.33;64.17
10167;BME280;62970;53.130;8.244;2022-09-09T07:16:50;100829.81;;;19.18;64.67
10167;BME280;62970;53.130;8.244;2022-09-09T07:19:20;100834.44;;;18.99;64.46
10167;BME280;62970;53.130;8.244;2022-09-09T07:21:52;100829.44;;;18.78;64.42
10167;BME280;62970;53.130;8.244;2022-09-09T07:24:20;100830.50;;;18.60;64.76
10167;BME280;62970;53.130;8.244;2022-09-09T07:26:51;100837.56;;;18.44;64.89
10167;BME280;62970;53.130;8.244;2022-09-09T07:29:20;100834.84;;;18.30;64.67
10167;BME280;62970;53.130;8.244;2022-09-09T07:31:49;100835.28;;;18.21;65.23
10167;BME280;62970;53.130;8.244;2022-09-09T07:34:18;100836.56;;;18.13;65.02
10167;BME280;62970;53.130;8.244;2022-09-09T07:36:48;100836.97;;;18.06;65.35
10167;BME280;62970;53.130;8.244;2022-09-09T07:39:20;100832.81;;;18.02;65.46
10167;BME280;62970;53.130;8.244;2022-09-09T07:41:49;100835.44;;;18.02;65.38
10167;BME280;62970;53.130;8.244;2022-09-09T07:44:22;100842.34;;;18.04;66.02
10167;BME280;62970;53.130;8.244;2022-09-09T07:46:52;100843.22;;;18.21;65.83
10167;BME280;62970;53.130;8.244;2022-09-09T07:49:22;100841.13;;;18.59;66.40
10167;BME280;62970;53.130;8.244;2022-09-09T07:51:51;100843.66;;;19.07;65.66
10167;BME280;62970;53.130;8.244;2022-09-09T07:54:23;100839.25;;;19.52;64.50
10167;BME280;62970;53.130;8.244;2022-09-09T07:56:52;100844.44;;;19.84;63.63
10167;BME280;62970;53.130;8.244;2022-09-09T07:59:22;100843.78;;;19.94;62.70
10167;BME280;62970;53.130;8.244;2022-09-09T08:01:52;100844.81;;;19.92;62.02
10167;BME280;62970;53.130;8.244;2022-09-09T08:04:24;100841.13;;;19.80;62.29
10167;BME280;62970;53.130;8.244;2022-09-09T08:06:56;100835.88;;;19.64;62.58
10167;BME280;62970;53.130;8.244;2022-09-09T08:09:29;100837.81;;;19.46;62.33
10167;BME280;62970;53.130;8.244;2022-09-09T08:12:00;100844.28;;;19.27;62.82
10167;BME280;62970;53.130;8.244;2022-09-09T08:14:30;100847.91;;;19.10;62.42
10167;BME280;62970;53.130;8.244;2022-09-09T08:16:59;100848.78;;;18.95;63.16
10167;BME280;62970;53.130;8.244;2022-09-09T08:19:28;100833.72;;;18.81;62.99
10167;BME280;62970;53.130;8.244;2022-09-09T08:22:00;100837.03;;;18.69;63.12
10167;BME280;62970;53.130;8.244;2022-09-09T08:24:36;100839.34;;;18.59;63.57
10167;BME280;62970;53.130;8.244;2022-09-09T08:27:05;100838.84;;;18.53;63.55
10167;BME280;62970;53.130;8.244;2022-09-09T08:29:38;100839.19;;;18.46;63.49
10167;BME280;62970;53.130;8.244;2022-09-09T08:32:07;100850.00;;;18.42;63.92
10167;BME280;62970;53.130;8.244;2022-09-09T08:34:37;100843.94;;;18.40;64.21
10167;BME280;62970;53.130;8.244;2022-09-09T08:37:07;100843.69;;;18.44;64.38
10167;BME280;62970;53.130;8.244;2022-09-09T08:39:39;100843.28;;;18.52;64.35
10167;BME280;62970;53.130;8.244;2022-09-09T08:42:35;100842.06;;;18.58;64.13
10167;BME280;62970;53.130;8.244;2022-09-09T08:45:26;100844.72;;;18.58;64.14
10167;BME280;62970;53.130;8.244;2022-09-09T08:48:10;100848.47;;;18.54;64.16
10167;BME280;62970;53.130;8.244;2022-09-09T08:50:42;100845.16;;;18.50;63.73
10167;BME280;62970;53.130;8.244;2022-09-09T08:53:19;100845.47;;;18.44;64.06
10167;BME280;62970;53.130;8.244;2022-09-09T08:55:53;100856.38;;;18.38;63.42
10167;BME280;62970;53.130;8.244;2022-09-09T08:58:27;100850.50;;;18.33;63.68
10167;BME280;62970;53.130;8.244;2022-09-09T09:01:29;100862.25;;;18.27;63.87
10167;BME280;62970;53.130;8.244;2022-09-09T09:04:14;100864.09;;;18.25;63.38
10167;BME280;62970;53.130;8.244;2022-09-09T09:06:54;100864.03;;;18.27;63.55
10167;BME280;62970;53.130;8.244;2022-09-09T09:09:38;100865.66;;;18.29;63.71
10167;BME280;62970;53.130;8.244;2022-09-09T09:12:20;100866.84;;;18.39;63.81
10167;BME280;62970;53.130;8.244;2022-09-09T09:14:50;100870.44;;;18.54;63.94
10167;BME280;62970;53.130;8.244;2022-09-09T09:17:24;100871.47;;;18.67;63.80
10167;BME280;62970;53.130;8.244;2022-09-09T09:19:55;100871.53;;;18.81;63.80
10167;BME280;62970;53.130;8.244;2022-09-09T09:22:32;100872.19;;;19.01;64.04
10167;BME280;62970;53.130;8.244;2022-09-09T09:25:13;100870.63;;;19.28;63.68
10167;BME280;62970;53.130;8.244;2022-09-09T09:27:57;100876.94;;;19.56;63.29
10167;BME280;62970;53.130;8.244;2022-09-09T09:30:35;100859.69;;;19.78;63.38
10167;BME280;62970;53.130;8.244;2022-09-09T09:33:16;100863.13;;;19.95;62.46
10167;BME280;62970;53.130;8.244;2022-09-09T09:35:48;100871.19;;;20.07;61.88
10167;BME280;62970;53.130;8.244;2022-09-09T09:38:21;100866.25;;;20.16;61.26
10167;BME280;62970;53.130;8.244;2022-09-09T09:40:52;100866.25;;;20.16;61.01
10167;BME280;62970;53.130;8.244;2022-09-09T09:43:29;100861.16;;;20.13;60.92
10167;BME280;62970;53.130;8.244;2022-09-09T09:46:00;100857.84;;;20.09;60.87
10167;BME280;62970;53.130;8.244;2022-09-09T09:48:32;100854.44;;;20.07;60.74
10167;BME280;62970;53.130;8.244;2022-09-09T09:51:04;100858.69;;;20.09;60.60
10167;BME280;62970;53.130;8.244;2022-09-09T09:53:37;100865.59;;;20.12;59.99
10167;BME280;62970;53.130;8.244;2022-09-09T09:56:12;100871.84;;;20.11;60.20
10167;BME280;62970;53.130;8.244;2022-09-09T09:58:52;100866.81;;;20.06;60.44
10167;BME280;62970;53.130;8.244;2022-09-09T10:01:28;100873.16;;;20.04;60.28
10167;BME280;62970;53.130;8.244;2022-09-09T10:04:01;100867.88;;;20.04;60.57
10167;BME280;62970;53.130;8.244;2022-09-09T10:06:33;100866.81;;;20.06;60.51
10167;BME280;62970;53.130;8.244;2022-09-09T10:09:17;100864.94;;;20.08;59.80
10167;BME280;62970;53.130;8.244;2022-09-09T10:11:57;100860.59;;;20.07;60.78
10167;BME280;62970;53.130;8.244;2022-09-09T10:14:40;100855.84;;;20.13;60.35
10167;BME280;62970;53.130;8.244;2022-09-09T10:17:20;100860.19;;;20.28;60.33
10167;BME280;62970;53.130;8.244;2022-09-09T10:20:12;100858.22;;;20.46;60.78
10167;BME280;62970;53.130;8.244;2022-09-09T10:22:50;100852.53;;;20.66;60.27
10167;BME280;62970;53.130;8.244;2022-09-09T10:25:36;100849.63;;;20.83;59.94
10167;BME280;62970;53.130;8.244;2022-09-09T10:28:35;100856.03;;;20.93;59.07
10167;BME280;62970;53.130;8.244;2022-09-09T10:34:16;100857.88;;;21.05;58.84
10167;BME280;62970;53.130;8.244;2022-09-09T10:36:50;100854.91;;;21.10;58.30
10167;BME280;62970;53.130;8.244;2022-09-09T10:39:34;100859.72;;;21.18;58.41
10167;BME280;62970;53.130;8.244;2022-09-09T10:42:08;100862.44;;;21.30;58.07
10167;BME280;62970;53.130;8.244;2022-09-09T10:45:07;100861.72;;;21.41;58.13
10167;BME280;62970;53.130;8.244;2022-09-09T10:48:12;100863.94;;;21.47;58.35
10167;BME280;62970;53.130;8.244;2022-09-09T10:50:54;100870.44;;;21.56;58.08
10167;BME280;62970;53.130;8.244;2022-09-09T10:53:36;100862.78;;;21.64;57.63
10167;BME280;62970;53.130;8.244;2022-09-09T10:56:10;100854.41;;;21.70;57.35
10167;BME280;62970;53.130;8.244;2022-09-09T10:58:46;100859.19;;;21.78;56.98
10167;BME280;62970;53.130;8.244;2022-09-09T11:01:21;100856.84;;;21.86;56.89
10167;BME280;62970;53.130;8.244;2022-09-09T11:03:59;100853.34;;;21.85;56.24
10167;BME280;62970;53.130;8.244;2022-09-09T11:06:37;100851.03;;;21.81;56.20
10167;BME280;62970;53.130;8.244;2022-09-09T11:09:17;100852.72;;;21.69;55.83
10167;BME280;62970;53.130;8.244;2022-09-09T11:11:52;100854.72;;;21.53;55.76
10167;BME280;62970;53.130;8.244;2022-09-09T11:14:29;100862.03;;;21.36;56.14
10167;BME280;62970;53.130;8.244;2022-09-09T11:17:06;100867.47;;;21.21;56.00
10167;BME280;62970;53.130;8.244;2022-09-09T11:19:43;100870.63;;;21.13;56.25
10167;BME280;62970;53.130;8.244;2022-09-09T11:22:22;100869.13;;;21.09;56.49
10167;BME280;62970;53.130;8.244;2022-09-09T11:24:58;100863.06;;;21.07;56.37
10167;BME280;62970;53.130;8.244;2022-09-09T11:27:35;100868.59;;;21.04;56.71
10167;BME280;62970;53.130;8.244;2022-09-09T11:30:19;100864.22;;;21.03;56.51
10167;BME280;62970;53.130;8.244;2022-09-09T11:36:25;100869.97;;;21.10;57.40
10167;BME280;62970;53.130;8.244;2022-09-09T11:39:22;100857.69;;;21.09;56.69
10167;BME280;62970;53.130;8.244;2022-09-09T11:42:07;100856.06;;;21.06;56.86
10167;BME280;62970;53.130;8.244;2022-09-09T11:44:36;100866.78;;;21.04;57.06
10167;BME280;62970;53.130;8.244;2022-09-09T11:47:21;100861.03;;;20.98;56.88
10167;BME280;62970;53.130;8.244;2022-09-09T11:49:55;100862.09;;;20.95;56.32
10167;BME280;62970;53.130;8.244;2022-09-09T11:52:42;100854.44;;;20.91;57.08
10167;BME280;62970;53.130;8.244;2022-09-09T11:55:26;100851.25;;;20.86;56.93
10167;BME280;62970;53.130;8.244;2022-09-09T11:57:58;100853.88;;;20.86;56.95
10167;BME280;62970;53.130;8.244;2022-09-09T12:00:34;100848.59;;;20.86;57.07
10167;BME280;62970;53.130;8.244;2022-09-09T12:03:04;100850.09;;;20.90;56.39
10167;BME280;62970;53.130;8.244;2022-09-09T12:05:41;100846.09;;;20.97;56.67
10167;BME280;62970;53.130;8.244;2022-09-09T12:08:24;100848.47;;;21.14;56.83
10167;BME280;62970;53.130;8.244;2022-09-09T12:10:57;100838.16;;;21.36;56.57
10167;BME280;62970;53.130;8.244;2022-09-09T12:13:29;100842.75;;;21.60;56.13
10167;BME280;62970;53.130;8.244;2022-09-09T12:16:00;100845.06;;;21.77;55.41
10167;BME280;62970;53.130;8.244;2022-09-09T12:18:34;100848.78;;;21.87;55.24
10167;BME280;62970;53.130;8.244;2022-09-09T12:21:15;100850.06;;;21.94;55.81
10167;BME280;62970;53.130;8.244;2022-09-09T12:23:56;100840.84;;;22.00;55.47
10167;BME280;62970;53.130;8.244;2022-09-09T12:26:33;100860.06;;;22.04;54.79
10167;BME280;62970;53.130;8.244;2022-09-09T12:29:14;100854.97;;;22.00;54.72
10167;BME280;62970;53.130;8.244;2022-09-09T12:31:53;100850.63;;;21.99;55.22
10167;BME280;62970;53.130;8.244;2022-09-09T12:34:36;100858.03;;;21.94;54.54
10167;BME280;62970;53.130;8.244;2022-09-09T12:37:16;100851.22;;;21.90;54.66
10167;BME280;62970;53.130;8.244;2022-09-09T12:39:54;100856.84;;;21.86;54.56
10167;BME280;62970;53.130;8.244;2022-09-09T12:42:26;100851.75;;;21.83;54.22
10167;BME280;62970;53.130;8.244;2022-09-09T12:44:58;100850.16;;;21.80;54.58
10167;BME280;62970;53.130;8.244;2022-09-09T12:47:40;100846.66;;;21.80;55.04
10167;BME280;62970;53.130;8.244;2022-09-09T12:50:18;100841.38;;;21.80;54.83
10167;BME280;62970;53.130;8.244;2022-09-09T12:52:50;100841.47;;;21.78;54.52
10167;BME280;62970;53.130;8.244;2022-09-09T12:55:25;100845.94;;;21.78;54.98
10167;BME280;62970;53.130;8.244;2022-09-09T12:57:57;100827.56;;;21.75;54.39
10167;BME280;62970;53.130;8.244;2022-09-09T13:00:30;100831.28;;;21.72;54.33
10167;BME280;62970;53.130;8.244;2022-09-09T13:03:02;100828.00;;;21.68;53.98
10167;BME280;62970;53.130;8.244;2022-09-09T13:05:36;100829.38;;;21.61;54.13
10167;BME280;62970;53.130;8.244;2022-09-09T13:08:09;100827.25;;;21.54;53.84
10167;BME280;62970;53.130;8.244;2022-09-09T13:10:47;100835.72;;;21.46;54.33
10167;BME280;62970;53.130;8.244;2022-09-09T13:13:25;100837.19;;;21.38;54.15
10167;BME280;62970;53.130;8.244;2022-09-09T13:15:57;100832.41;;;21.30;54.41
10167;BME280;62970;53.130;8.244;2022-09-09T13:18:29;100834.69;;;21.22;54.14
10167;BME280;62970;53.130;8.244;2022-09-09T13:21:00;100825.66;;;21.12;54.08
10167;BME280;62970;53.130;8.244;2022-09-09T13:23:32;100823.94;;;20.98;54.15
10167;BME280;62970;53.130;8.244;2022-09-09T13:26:19;100829.28;;;20.84;54.58
10167;BME280;62970;53.130;8.244;2022-09-09T13:28:50;100841.44;;;20.73;54.67
10167;BME280;62970;53.130;8.244;2022-09-09T13:31:23;100848.47;;;20.60;55.07
10167;BME280;62970;53.130;8.244;2022-09-09T13:33:53;100860.38;;;20.53;55.04